sensor_id;sensor_type;location;lat;lon;timestamp;pressure;altitude;pressure_sealevel;temperature;humidity
56658;BME280;42530;52.240;19.354;2022-09-09T00:00:44;52826.13;;;-144.69;53.23
56658;BME280;42530;52.240;19.354;2022-09-09T00:03:18;52840.69;;;-144.69;53.81
56658;BME280;42530;52.240;19.354;2022-09-09T00:09:29;52821.97;;;-144.69;52.68
56658;BME280;42530;52.240;19.354;2022-09-09T00:14:14;52809.47;;;-144.69;53.06
56658;BME280;42530;52.240;19.354;2022-09-09T00:16:46;52813.63;;;-144.69;53.57
56658;BME280;42530;52.240;19.354;2022-09-09T00:19:58;52849.00;;;-144.69;53.21
56658;BME280;42530;52.240;19.354;2022-09-09T00:22:22;52811.56;;;-144.69;52.94
56658;BME280;42530;52.240;19.354;2022-09-09T00:24:55;52811.56;;;-144.69;52.91
56658;BME280;42530;52.240;19.354;2022-09-09T00:27:38;52853.16;;;-144.69;52.83
56658;BME280;42530;52.240;19.354;2022-09-09T00:30:24;52859.41;;;-144.69;52.96
56658;BME280;42530;52.240;19.354;2022-09-09T00:32:55;52838.59;;;-144.69;53.22
56658;BME280;42530;52.240;19.354;2022-09-09T00:35:36;52821.97;;;-144.69;53.47
56658;BME280;42530;52.240;19.354;2022-09-09T00:38:39;52840.69;;;-144.69;53.50
56658;BME280;42530;52.240;19.354;2022-09-09T00:44:19;52786.59;;;-144.69;52.85
56658;BME280;42530;52.240;19.354;2022-09-09T00:47:01;52836.50;;;-144.69;52.97
56658;BME280;42530;52.240;19.354;2022-09-09T00:49:52;52809.47;;;-144.69;52.70
56658;BME280;42530;52.240;19.354;2022-09-09T00:52:36;52807.41;;;-144.69;52.93
56658;BME280;42530;52.240;19.354;2022-09-09T00:55:28;52836.50;;;-144.69;53.50
56658;BME280;42530;52.240;19.354;2022-09-09T00:57:57;52857.31;;;-144.69;53.33
56658;BME280;42530;52.240;19.354;2022-09-09T01:00:27;52840.69;;;-144.69;53.79
56658;BME280;42530;52.240;19.354;2022-09-09T01:05:33;52857.31;;;-144.69;53.70
56658;BME280;42530;52.240;19.354;2022-09-09T01:08:04;52836.50;;;-144.69;53.88
56658;BME280;42530;52.240;19.354;2022-09-09T01:10:48;52857.31;;;-144.69;53.78
56658;BME280;42530;52.240;19.354;2022-09-09T01:13:29;52851.09;;;-144.69;53.36
56658;BME280;42530;52.240;19.354;2022-09-09T01:15:57;52853.16;;;-144.69;53.70
56658;BME280;42530;52.240;19.354;2022-09-09T01:18:29;52840.69;;;-144.69;53.39
56658;BME280;42530;52.240;19.354;2022-09-09T01:21:13;52824.03;;;-144.69;53.71
56658;BME280;42530;52.240;19.354;2022-09-09T01:28:48;52867.72;;;-144.69;54.22
56658;BME280;42530;52.240;19.354;2022-09-09T01:31:19;52826.13;;;-144.69;53.88
56658;BME280;42530;52.240;19.354;2022-09-09T01:33:45;52855.25;;;-144.69;54.16
56658;BME280;42530;52.240;19.354;2022-09-09T01:38:42;52815.72;;;-144.69;54.15
56658;BME280;42530;52.240;19.354;2022-09-09T01:41:08;52832.34;;;-144.69;54.08
56658;BME280;42530;52.240;19.354;2022-09-09T01:43:33;52832.34;;;-144.69;53.87
56658;BME280;42530;52.240;19.354;2022-09-09T01:46:00;52819.88;;;-144.69;53.95
56658;BME280;42530;52.240;19.354;2022-09-09T01:48:27;52878.13;;;-144.69;53.79
56658;BME280;42530;52.240;19.354;2022-09-09T01:50:53;52873.97;;;-144.69;53.49
56658;BME280;42530;52.240;19.354;2022-09-09T01:53:20;52836.50;;;-144.69;54.19
56658;BME280;42530;52.240;19.354;2022-09-09T01:56:16;52838.59;;;-144.69;54.49
56658;BME280;42530;52.240;19.354;2022-09-09T02:06:56;52838.59;;;-144.69;54.29
56658;BME280;42530;52.240;19.354;2022-09-09T02:09:24;52857.31;;;-144.69;54.27
56658;BME280;42530;52.240;19.354;2022-09-09T02:11:57;52863.56;;;-144.69;54.56
56658;BME280;42530;52.240;19.354;2022-09-09T02:14:27;52828.19;;;-144.69;54.06
56658;BME280;42530;52.240;19.354;2022-09-09T02:17:02;52813.63;;;-144.69;54.61
56658;BME280;42530;52.240;19.354;2022-09-09T02:19:32;52849.00;;;-144.69;54.47
56658;BME280;42530;52.240;19.354;2022-09-09T02:22:01;52840.69;;;-144.69;54.37
56658;BME280;42530;52.240;19.354;2022-09-09T02:24:29;52894.75;;;-144.69;54.30
56658;BME280;42530;52.240;19.354;2022-09-09T02:26:57;52859.41;;;-144.69;53.86
56658;BME280;42530;52.240;19.354;2022-09-09T02:29:33;52859.41;;;-144.69;54.13
56658;BME280;42530;52.240;19.354;2022-09-09T02:32:03;52859.41;;;-144.69;54.18
56658;BME280;42530;52.240;19.354;2022-09-09T02:34:32;52861.47;;;-144.69;54.22
56658;BME280;42530;52.240;19.354;2022-09-09T02:36:59;52884.38;;;-144.69;54.17
56658;BME280;42530;52.240;19.354;2022-09-09T02:39:26;52853.16;;;-144.69;54.45
56658;BME280;42530;52.240;19.354;2022-09-09T02:41:51;52836.50;;;-144.69;54.30
56658;BME280;42530;52.240;19.354;2022-09-09T02:44:18;52830.28;;;-144.69;54.38
56658;BME280;42530;52.240;19.354;2022-09-09T02:49:15;52844.84;;;-144.69;54.21
56658;BME280;42530;52.240;19.354;2022-09-09T02:51:53;52824.03;;;-144.69;53.72
56658;BME280;42530;52.240;19.354;2022-09-09T02:54:34;52861.47;;;-144.69;54.18
56658;BME280;42530;52.240;19.354;2022-09-09T02:57:10;52836.50;;;-144.69;54.21
56658;BME280;42530;52.240;19.354;2022-09-09T02:59:36;52844.84;;;-144.69;54.40
56658;BME280;42530;52.240;19.354;2022-09-09T03:02:03;52886.44;;;-144.69;54.08
56658;BME280;42530;52.240;19.354;2022-09-09T03:04:29;52849.00;;;-144.69;54.08
56658;BME280;42530;52.240;19.354;2022-09-09T03:06:56;52859.41;;;-144.69;53.81
56658;BME280;42530;52.240;19.354;2022-09-09T03:09:21;52855.25;;;-144.69;53.65
56658;BME280;42530;52.240;19.354;2022-09-09T03:11:46;52867.72;;;-144.69;53.77
56658;BME280;42530;52.240;19.354;2022-09-09T03:14:12;52863.56;;;-144.69;53.86
56658;BME280;42530;52.240;19.354;2022-09-09T03:16:37;52828.19;;;-144.69;54.22
56658;BME280;42530;52.240;19.354;2022-09-09T03:19:03;52909.34;;;-144.69;54.11
56658;BME280;42530;52.240;19.354;2022-09-09T03:21:28;52846.91;;;-144.69;53.77
56658;BME280;42530;52.240;19.354;2022-09-09T03:23:54;52853.16;;;-144.69;53.33
56658;BME280;42530;52.240;19.354;2022-09-09T03:26:19;52857.31;;;-144.69;53.45
56658;BME280;42530;52.240;19.354;2022-09-09T03:28:45;52865.66;;;-144.69;53.87
56658;BME280;42530;52.240;19.354;2022-09-09T03:31:11;52880.19;;;-144.69;53.86
56658;BME280;42530;52.240;19.354;2022-09-09T03:33:37;52819.88;;;-144.69;53.75
56658;BME280;42530;52.240;19.354;2022-09-09T03:36:04;52840.69;;;-144.69;53.73
56658;BME280;42530;52.240;19.354;2022-09-09T03:38:29;52865.66;;;-144.69;53.89
56658;BME280;42530;52.240;19.354;2022-09-09T03:40:56;52863.56;;;-144.69;54.12
56658;BME280;42530;52.240;19.354;2022-09-09T03:43:23;52892.69;;;-144.69;54.21
56658;BME280;42530;52.240;19.354;2022-09-09T03:45:50;52834.44;;;-144.69;54.20
56658;BME280;42530;52.240;19.354;2022-09-09T03:48:17;52840.69;;;-144.69;53.42
56658;BME280;42530;52.240;19.354;2022-09-09T03:50:46;52846.91;;;-144.69;53.43
56658;BME280;42530;52.240;19.354;2022-09-09T03:53:14;52834.44;;;-144.69;53.28
56658;BME280;42530;52.240;19.354;2022-09-09T03:55:43;52869.81;;;-144.69;53.22
56658;BME280;42530;52.240;19.354;2022-09-09T03:58:09;52859.41;;;-144.69;53.61
56658;BME280;42530;52.240;19.354;2022-09-09T04:00:36;52861.47;;;-144.69;53.45
56658;BME280;42530;52.240;19.354;2022-09-09T04:03:01;52853.16;;;-144.69;53.41
56658;BME280;42530;52.240;19.354;2022-09-09T04:05:27;52853.16;;;-144.69;53.66
56658;BME280;42530;52.240;19.354;2022-09-09T04:07:53;52882.28;;;-144.69;53.68
56658;BME280;42530;52.240;19.354;2022-09-09T04:10:19;52840.69;;;-144.69;53.16
56658;BME280;42530;52.240;19.354;2022-09-09T04:12:46;52911.41;;;-144.69;53.21
56658;BME280;42530;52.240;19.354;2022-09-09T04:15:11;52876.03;;;-144.69;53.53
56658;BME280;42530;52.240;19.354;2022-09-09T04:17:37;52832.34;;;-144.69;53.65
56658;BME280;42530;52.240;19.354;2022-09-09T04:20:02;52865.66;;;-144.69;53.18
56658;BME280;42530;52.240;19.354;2022-09-09T04:22:28;52851.09;;;-144.69;53.13
56658;BME280;42530;52.240;19.354;2022-09-09T04:24:53;52894.75;;;-144.69;53.21
56658;BME280;42530;52.240;19.354;2022-09-09T04:27:19;52846.91;;;-144.69;53.25
56658;BME280;42530;52.240;19.354;2022-09-09T04:29:44;52851.09;;;-144.69;52.69
56658;BME280;42530;52.240;19.354;2022-09-09T04:32:10;52857.31;;;-144.69;52.74
56658;BME280;42530;52.240;19.354;2022-09-09T04:34:35;52840.69;;;-144.69;52.66
56658;BME280;42530;52.240;19.354;2022-09-09T04:37:00;52828.19;;;-144.69;52.73
56658;BME280;42530;52.240;19.354;2022-09-09T04:39:26;52890.59;;;-144.69;52.59
56658;BME280;42530;52.240;19.354;2022-09-09T04:41:51;52903.09;;;-144.69;53.06
56658;BME280;42530;52.240;19.354;2022-09-09T04:44:18;52846.91;;;-144.69;53.04
56658;BME280;42530;52.240;19.354;2022-09-09T04:46:43;52857.31;;;-144.69;53.04
56658;BME280;42530;52.240;19.354;2022-09-09T04:49:10;52873.97;;;-144.69;53.20
56658;BME280;42530;52.240;19.354;2022-09-09T04:51:35;52865.66;;;-144.69;53.13
56658;BME280;42530;52.240;19.354;2022-09-09T04:54:01;52855.25;;;-144.69;53.02
56658;BME280;42530;52.240;19.354;2022-09-09T04:56:26;52869.81;;;-144.69;53.34
56658;BME280;42530;52.240;19.354;2022-09-09T04:58:52;52849.00;;;-144.69;52.91
56658;BME280;42530;52.240;19.354;2022-09-09T05:01:19;52869.81;;;-144.69;52.81
56658;BME280;42530;52.240;19.354;2022-09-09T05:03:47;52838.59;;;-144.69;52.88
56658;BME280;42530;52.240;19.354;2022-09-09T05:06:18;52890.59;;;-144.69;52.88
56658;BME280;42530;52.240;19.354;2022-09-09T05:08:45;52840.69;;;-144.69;53.33
56658;BME280;42530;52.240;19.354;2022-09-09T05:11:21;52932.22;;;-144.69;52.89
56658;BME280;42530;52.240;19.354;2022-09-09T05:13:48;52888.53;;;-144.69;52.97
56658;BME280;42530;52.240;19.354;2022-09-09T05:16:16;52886.44;;;-144.69;52.20
56658;BME280;42530;52.240;19.354;2022-09-09T05:18:42;52844.84;;;-144.69;52.13
56658;BME280;42530;52.240;19.354;2022-09-09T05:21:09;52896.84;;;-144.69;52.04
56658;BME280;42530;52.240;19.354;2022-09-09T05:23:35;52886.44;;;-144.69;52.22
56658;BME280;42530;52.240;19.354;2022-09-09T05:26:01;52880.19;;;-144.69;52.03
56658;BME280;42530;52.240;19.354;2022-09-09T05:28:27;52840.69;;;-144.69;51.94
56658;BME280;42530;52.240;19.354;2022-09-09T05:31:00;52871.88;;;-144.69;51.77
56658;BME280;42530;52.240;19.354;2022-09-09T05:33:29;52892.69;;;-144.69;51.64
56658;BME280;42530;52.240;19.354;2022-09-09T05:35:59;52849.00;;;-144.69;51.54
56658;BME280;42530;52.240;19.354;2022-09-09T05:38:27;52896.84;;;-144.69;51.27
56658;BME280;42530;52.240;19.354;2022-09-09T05:40:53;52865.66;;;-144.69;51.22
56658;BME280;42530;52.240;19.354;2022-09-09T05:43:19;52882.28;;;-144.69;50.95
56658;BME280;42530;52.240;19.354;2022-09-09T05:45:46;52892.69;;;-144.69;51.27
56658;BME280;42530;52.240;19.354;2022-09-09T05:48:14;52894.75;;;-144.69;50.95
56658;BME280;42530;52.240;19.354;2022-09-09T05:50:42;52878.13;;;-144.69;50.13
56658;BME280;42530;52.240;19.354;2022-09-09T05:53:09;52876.03;;;-144.69;50.60
56658;BME280;42530;52.240;19.354;2022-09-09T05:55:35;52898.94;;;-144.69;50.51
56658;BME280;42530;52.240;19.354;2022-09-09T05:58:01;52882.28;;;-144.69;50.64
56658;BME280;42530;52.240;19.354;2022-09-09T06:00:26;52876.03;;;-144.69;50.50
56658;BME280;42530;52.240;19.354;2022-09-09T06:02:52;52884.38;;;-144.69;50.22
56658;BME280;42530;52.240;19.354;2022-09-09T06:05:19;52869.81;;;-144.69;50.12
56658;BME280;42530;52.240;19.354;2022-09-09T06:07:44;52844.84;;;-144.69;50.17
56658;BME280;42530;52.240;19.354;2022-09-09T06:10:11;52873.97;;;-144.69;50.31
56658;BME280;42530;52.240;19.354;2022-09-09T06:12:39;52886.44;;;-144.69;50.63
56658;BME280;42530;52.240;19.354;2022-09-09T06:15:05;52859.41;;;-144.69;50.42
56658;BME280;42530;52.240;19.354;2022-09-09T06:17:31;52901.00;;;-144.69;50.00
56658;BME280;42530;52.240;19.354;2022-09-09T06:19:56;52903.09;;;-144.69;49.52
56658;BME280;42530;52.240;19.354;2022-09-09T06:22:22;52890.59;;;-144.69;48.96
56658;BME280;42530;52.240;19.354;2022-09-09T06:24:47;52894.75;;;-144.69;49.00
56658;BME280;42530;52.240;19.354;2022-09-09T06:27:13;52869.81;;;-144.69;49.31
56658;BME280;42530;52.240;19.354;2022-09-09T06:29:39;52865.66;;;-144.69;49.25
56658;BME280;42530;52.240;19.354;2022-09-09T06:32:04;52890.59;;;-144.69;49.22
56658;BME280;42530;52.240;19.354;2022-09-09T06:34:32;52886.44;;;-144.69;48.92
56658;BME280;42530;52.240;19.354;2022-09-09T06:37:25;52855.25;;;-144.69;48.63
56658;BME280;42530;52.240;19.354;2022-09-09T06:39:52;52884.38;;;-144.69;48.45
56658;BME280;42530;52.240;19.354;2022-09-09T06:42:17;52901.00;;;-144.69;48.18
56658;BME280;42530;52.240;19.354;2022-09-09T06:44:43;52894.75;;;-144.69;47.82
56658;BME280;42530;52.240;19.354;2022-09-09T06:47:08;52903.09;;;-144.69;47.63
56658;BME280;42530;52.240;19.354;2022-09-09T06:49:34;52894.75;;;-144.69;48.07
56658;BME280;42530;52.240;19.354;2022-09-09T06:52:00;52896.84;;;-144.69;47.80
56658;BME280;42530;52.240;19.354;2022-09-09T06:54:26;52905.16;;;-144.69;47.74
56658;BME280;42530;52.240;19.354;2022-09-09T06:56:51;52878.13;;;-144.69;47.98
56658;BME280;42530;52.240;19.354;2022-09-09T06:59:17;52911.41;;;-144.69;47.49
56658;BME280;42530;52.240;19.354;2022-09-09T07:01:43;52898.94;;;-144.69;47.00
56658;BME280;42530;52.240;19.354;2022-09-09T07:04:16;52903.09;;;-144.69;47.20
56658;BME280;42530;52.240;19.354;2022-09-09T07:06:46;52865.66;;;-144.69;47.26
56658;BME280;42530;52.240;19.354;2022-09-09T07:09:15;52890.59;;;-144.69;47.40
56658;BME280;42530;52.240;19.354;2022-09-09T07:11:46;52911.41;;;-144.69;47.12
56658;BME280;42530;52.240;19.354;2022-09-09T07:14:12;52907.25;;;-144.69;47.55
56658;BME280;42530;52.240;19.354;2022-09-09T07:16:40;52873.97;;;-144.69;47.11
56658;BME280;42530;52.240;19.354;2022-09-09T07:19:06;52903.09;;;-144.69;46.80
56658;BME280;42530;52.240;19.354;2022-09-09T07:21:32;52894.75;;;-144.69;48.17
56658;BME280;42530;52.240;19.354;2022-09-09T07:23:58;52878.13;;;-144.69;47.79
56658;BME280;42530;52.240;19.354;2022-09-09T07:26:26;52903.09;;;-144.69;47.65
56658;BME280;42530;52.240;19.354;2022-09-09T07:28:52;52894.75;;;-144.69;47.10
56658;BME280;42530;52.240;19.354;2022-09-09T07:31:21;52896.84;;;-144.69;46.85
56658;BME280;42530;52.240;19.354;2022-09-09T07:33:47;52905.16;;;-144.69;46.38
56658;BME280;42530;52.240;19.354;2022-09-09T07:36:16;52888.53;;;-144.69;46.46
56658;BME280;42530;52.240;19.354;2022-09-09T07:38:44;52919.72;;;-144.69;46.34
56658;BME280;42530;52.240;19.354;2022-09-09T07:41:14;52884.38;;;-144.69;46.90
56658;BME280;42530;52.240;19.354;2022-09-09T07:43:42;52898.94;;;-144.69;47.13
56658;BME280;42530;52.240;19.354;2022-09-09T07:46:09;52894.75;;;-144.69;46.96
56658;BME280;42530;52.240;19.354;2022-09-09T07:48:35;52894.75;;;-144.69;46.80
56658;BME280;42530;52.240;19.354;2022-09-09T07:51:13;52919.72;;;-144.69;46.38
56658;BME280;42530;52.240;19.354;2022-09-09T07:53:42;52903.09;;;-144.69;46.99
56658;BME280;42530;52.240;19.354;2022-09-09T07:56:11;52907.25;;;-144.69;47.02
56658;BME280;42530;52.240;19.354;2022-09-09T07:58:39;52886.44;;;-144.69;47.24
56658;BME280;42530;52.240;19.354;2022-09-09T08:01:10;52938.44;;;-144.69;47.15
56658;BME280;42530;52.240;19.354;2022-09-09T08:03:37;52905.16;;;-144.69;47.52
56658;BME280;42530;52.240;19.354;2022-09-09T08:06:05;52911.41;;;-144.69;46.96
56658;BME280;42530;52.240;19.354;2022-09-09T08:08:31;52905.16;;;-144.69;47.16
56658;BME280;42530;52.240;19.354;2022-09-09T08:11:24;52894.75;;;-144.69;46.24
56658;BME280;42530;52.240;19.354;2022-09-09T08:13:51;52894.75;;;-144.69;45.96
56658;BME280;42530;52.240;19.354;2022-09-09T08:16:21;52913.50;;;-144.69;45.69
56658;BME280;42530;52.240;19.354;2022-09-09T08:18:49;52873.97;;;-144.69;45.48
56658;BME280;42530;52.240;19.354;2022-09-09T08:21:20;52923.91;;;-144.69;44.62
56658;BME280;42530;52.240;19.354;2022-09-09T08:23:47;52903.09;;;-144.69;45.15
56658;BME280;42530;52.240;19.354;2022-09-09T08:26:17;52923.91;;;-144.69;45.14
56658;BME280;42530;52.240;19.354;2022-09-09T08:28:49;52898.94;;;-144.69;44.77
56658;BME280;42530;52.240;19.354;2022-09-09T08:31:21;52903.09;;;-144.69;44.64
56658;BME280;42530;52.240;19.354;2022-09-09T08:33:47;52915.56;;;-144.69;44.99
56658;BME280;42530;52.240;19.354;2022-09-09T08:36:15;52898.94;;;-144.69;45.13
56658;BME280;42530;52.240;19.354;2022-09-09T08:38:49;52928.06;;;-144.69;44.86
56658;BME280;42530;52.240;19.354;2022-09-09T08:43:50;52913.50;;;-144.69;46.17
56658;BME280;42530;52.240;19.354;2022-09-09T08:46:26;52886.44;;;-144.69;46.10
56658;BME280;42530;52.240;19.354;2022-09-09T08:49:18;52896.84;;;-144.69;45.05
56658;BME280;42530;52.240;19.354;2022-09-09T08:51:53;52901.00;;;-144.69;44.77
56658;BME280;42530;52.240;19.354;2022-09-09T08:54:23;52882.28;;;-144.69;44.48
56658;BME280;42530;52.240;19.354;2022-09-09T08:56:51;52884.38;;;-144.69;44.48
56658;BME280;42530;52.240;19.354;2022-09-09T08:59:18;52853.16;;;-144.69;44.84
56658;BME280;42530;52.240;19.354;2022-09-09T09:01:52;52928.06;;;-144.69;44.73
56658;BME280;42530;52.240;19.354;2022-09-09T09:04:41;52938.44;;;-144.69;43.87
56658;BME280;42530;52.240;19.354;2022-09-09T09:12:44;52905.16;;;-144.69;42.65
56658;BME280;42530;52.240;19.354;2022-09-09T09:15:24;52940.53;;;-144.69;42.76
56658;BME280;42530;52.240;19.354;2022-09-09T09:17:50;52934.28;;;-144.69;41.26
56658;BME280;42530;52.240;19.354;2022-09-09T09:20:17;52959.25;;;-144.69;40.74
56658;BME280;42530;52.240;19.354;2022-09-09T09:22:48;52909.34;;;-144.69;42.15
56658;BME280;42530;52.240;19.354;2022-09-09T09:25:23;52921.81;;;-144.69;41.48
56658;BME280;42530;52.240;19.354;2022-09-09T09:28:02;52932.22;;;-144.69;42.28
56658;BME280;42530;52.240;19.354;2022-09-09T09:30:52;52911.41;;;-144.69;42.49
56658;BME280;42530;52.240;19.354;2022-09-09T09:33:30;52913.50;;;-144.69;43.36
56658;BME280;42530;52.240;19.354;2022-09-09T09:35:59;52911.41;;;-144.69;43.17
56658;BME280;42530;52.240;19.354;2022-09-09T09:38:26;52923.91;;;-144.69;43.33
56658;BME280;42530;52.240;19.354;2022-09-09T09:40:55;52886.44;;;-144.69;43.22
56658;BME280;42530;52.240;19.354;2022-09-09T09:45:51;52944.69;;;-144.69;42.71
56658;BME280;42530;52.240;19.354;2022-09-09T09:48:16;52907.25;;;-144.69;42.29
56658;BME280;42530;52.240;19.354;2022-09-09T09:53:20;52961.34;;;-144.69;40.75
56658;BME280;42530;52.240;19.354;2022-09-09T09:55:55;52994.63;;;-144.69;39.62
56658;BME280;42530;52.240;19.354;2022-09-09T09:58:21;52948.84;;;-144.69;37.57
56658;BME280;42530;52.240;19.354;2022-09-09T10:00:48;53019.59;;;-144.69;36.21
56658;BME280;42530;52.240;19.354;2022-09-09T10:03:22;52946.78;;;-144.69;33.60
56658;BME280;42530;52.240;19.354;2022-09-09T10:05:48;52967.59;;;-144.69;34.90
56658;BME280;42530;52.240;19.354;2022-09-09T10:08:16;52942.63;;;-144.69;36.46
56658;BME280;42530;52.240;19.354;2022-09-09T10:19:00;52915.56;;;-144.69;37.85
56658;BME280;42530;52.240;19.354;2022-09-09T10:21:41;52986.31;;;-144.69;37.85
56658;BME280;42530;52.240;19.354;2022-09-09T10:32:41;52907.25;;;-144.69;34.17
56658;BME280;42530;52.240;19.354;2022-09-09T10:54:32;52936.38;;;-144.69;33.62
56658;BME280;42530;52.240;19.354;2022-09-09T10:57:32;52917.66;;;-144.69;34.04
56658;BME280;42530;52.240;19.354;2022-09-09T11:00:05;52965.50;;;-144.69;34.28
56658;BME280;42530;52.240;19.354;2022-09-09T11:02:33;52925.97;;;-144.69;34.16
56658;BME280;42530;52.240;19.354;2022-09-09T11:08:02;52928.06;;;-144.69;35.44
56658;BME280;42530;52.240;19.354;2022-09-09T11:10:44;52921.81;;;-144.69;34.72
56658;BME280;42530;52.240;19.354;2022-09-09T11:13:19;52915.56;;;-144.69;34.80
56658;BME280;42530;52.240;19.354;2022-09-09T11:15:52;52907.25;;;-144.69;34.65
56658;BME280;42530;52.240;19.354;2022-09-09T11:18:21;52903.09;;;-144.69;33.85
56658;BME280;42530;52.240;19.354;2022-09-09T11:20:53;52967.59;;;-144.69;29.96
56658;BME280;42530;52.240;19.354;2022-09-09T11:23:36;53019.59;;;-144.69;27.50
56658;BME280;42530;52.240;19.354;2022-09-09T11:26:04;53017.50;;;-144.69;27.24
56658;BME280;42530;52.240;19.354;2022-09-09T11:36:59;52961.34;;;-144.69;25.91
56658;BME280;42530;52.240;19.354;2022-09-09T11:42:22;52907.25;;;-144.69;26.93
56658;BME280;42530;52.240;19.354;2022-09-09T11:44:49;52967.59;;;-144.69;25.22
56658;BME280;42530;52.240;19.354;2022-09-09T11:47:23;52992.53;;;-144.69;25.25
56658;BME280;42530;52.240;19.354;2022-09-09T11:49:52;53002.94;;;-144.69;23.58
56658;BME280;42530;52.240;19.354;2022-09-09T11:52:36;52992.53;;;-144.69;23.45
56658;BME280;42530;52.240;19.354;2022-09-09T11:55:32;52959.25;;;-144.69;21.96
56658;BME280;42530;52.240;19.354;2022-09-09T11:58:24;52867.72;;;-144.69;22.59
56658;BME280;42530;52.240;19.354;2022-09-09T12:00:50;52944.69;;;-144.69;26.33
56658;BME280;42530;52.240;19.354;2022-09-09T12:03:39;52965.50;;;-144.69;23.63
56658;BME280;42530;52.240;19.354;2022-09-09T12:08:41;52957.19;;;-144.69;24.64
56658;BME280;42530;52.240;19.354;2022-09-09T12:11:08;52911.41;;;-144.69;23.43
56658;BME280;42530;52.240;19.354;2022-09-09T12:13:34;52919.72;;;-144.69;24.08
56658;BME280;42530;52.240;19.354;2022-09-09T12:16:01;52923.91;;;-144.69;24.50
56658;BME280;42530;52.240;19.354;2022-09-09T12:18:35;52948.84;;;-144.69;24.40
56658;BME280;42530;52.240;19.354;2022-09-09T12:21:21;52928.06;;;-144.69;25.66
56658;BME280;42530;52.240;19.354;2022-09-09T12:23:55;52977.97;;;-144.69;25.71
56658;BME280;42530;52.240;19.354;2022-09-09T12:29:50;52973.81;;;-144.69;23.78
56658;BME280;42530;52.240;19.354;2022-09-09T12:32:22;52911.41;;;-144.69;23.36
56658;BME280;42530;52.240;19.354;2022-09-09T12:34:55;52930.13;;;-144.69;23.99
56658;BME280;42530;52.240;19.354;2022-09-09T12:42:43;52907.25;;;-144.69;26.83
56658;BME280;42530;52.240;19.354;2022-09-09T12:47:49;52938.44;;;-144.69;28.55
56658;BME280;42530;52.240;19.354;2022-09-09T12:50:20;52930.13;;;-144.69;29.12
56658;BME280;42530;52.240;19.354;2022-09-09T12:52:48;52957.19;;;-144.69;29.63
56658;BME280;42530;52.240;19.354;2022-09-09T12:55:18;52940.53;;;-144.69;30.83
56658;BME280;42530;52.240;19.354;2022-09-09T12:57:45;52911.41;;;-144.69;31.29
56658;BME280;42530;52.240;19.354;2022-09-09T13:00:21;52944.69;;;-144.69;32.08
56658;BME280;42530;52.240;19.354;2022-09-09T13:02:53;52948.84;;;-144.69;31.54
56658;BME280;42530;52.240;19.354;2022-09-09T13:05:36;52969.66;;;-144.69;30.66
56658;BME280;42530;52.240;19.354;2022-09-09T13:08:10;52936.38;;;-144.69;29.55
56658;BME280;42530;52.240;19.354;2022-09-09T13:11:00;52946.78;;;-144.69;30.20
56658;BME280;42530;52.240;19.354;2022-09-09T13:13:32;52909.34;;;-144.69;29.09
56658;BME280;42530;52.240;19.354;2022-09-09T13:16:00;52911.41;;;-144.69;29.06
56658;BME280;42530;52.240;19.354;2022-09-09T13:18:39;52915.56;;;-144.69;30.41
56658;BME280;42530;52.240;19.354;2022-09-09T13:21:06;52919.72;;;-144.69;30.32
56658;BME280;42530;52.240;19.354;2022-09-09T13:23:34;52907.25;;;-144.69;31.10
56658;BME280;42530;52.240;19.354;2022-09-09T13:26:23;52923.91;;;-144.69;30.64
56658;BME280;42530;52.240;19.354;2022-09-09T13:28:50;52892.69;;;-144.69;31.24
56658;BME280;42530;52.240;19.354;2022-09-09T13:31:30;52940.53;;;-144.69;29.84
56658;BME280;42530;52.240;19.354;2022-09-09T13:33:57;52994.63;;;-144.69;27.83
56658;BME280;42530;52.240;19.354;2022-09-09T13:36:34;52948.84;;;-144.69;24.93
56658;BME280;42530;52.240;19.354;2022-09-09T13:39:02;52936.38;;;-144.69;23.38
56658;BME280;42530;52.240;19.354;2022-09-09T13:41:43;52953.00;;;-144.69;23.16
56658;BME280;42530;52.240;19.354;2022-09-09T13:44:21;52940.53;;;-144.69;22.98
56658;BME280;42530;52.240;19.354;2022-09-09T13:47:15;52961.34;;;-144.69;22.06
56658;BME280;42530;52.240;19.354;2022-09-09T13:49:42;52928.06;;;-144.69;22.05
56658;BME280;42530;52.240;19.354;2022-09-09T13:52:13;52957.19;;;-144.69;23.03
56658;BME280;42530;52.240;19.354;2022-09-09T13:54:52;52919.72;;;-144.69;23.55
56658;BME280;42530;52.240;19.354;2022-09-09T13:57:26;52940.53;;;-144.69;23.61
56658;BME280;42530;52.240;19.354;2022-09-09T13:59:54;52898.94;;;-144.69;24.02
56658;BME280;42530;52.240;19.354;2022-09-09T14:02:20;52919.72;;;-144.69;23.92
56658;BME280;42530;52.240;19.354;2022-09-09T14:04:48;52942.63;;;-144.69;24.01
56658;BME280;42530;52.240;19.354;2022-09-09T14:07:17;52921.81;;;-144.69;24.56
56658;BME280;42530;52.240;19.354;2022-09-09T14:09:43;52917.66;;;-144.69;24.61
56658;BME280;42530;52.240;19.354;2022-09-09T14:12:12;52921.81;;;-144.69;24.27
56658;BME280;42530;52.240;19.354;2022-09-09T14:14:39;52907.25;;;-144.69;24.82
56658;BME280;42530;52.240;19.354;2022-09-09T14:17:04;52911.41;;;-144.69;24.76
56658;BME280;42530;52.240;19.354;2022-09-09T14:19:30;52967.59;;;-144.69;25.85
56658;BME280;42530;52.240;19.354;2022-09-09T14:21:57;52909.34;;;-144.69;24.72
56658;BME280;42530;52.240;19.354;2022-09-09T14:24:23;52957.19;;;-144.69;24.97
56658;BME280;42530;52.240;19.354;2022-09-09T14:26:48;52932.22;;;-144.69;24.51
56658;BME280;42530;52.240;19.354;2022-09-09T14:29:14;52915.56;;;-144.69;24.01
56658;BME280;42530;52.240;19.354;2022-09-09T14:31:39;52911.41;;;-144.69;24.74
56658;BME280;42530;52.240;19.354;2022-09-09T14:34:05;52944.69;;;-144.69;24.71